sensor_id;sensor_type;location;lat;lon;timestamp;P1;durP1;ratioP1;P2;durP2;ratioP2
8293;SDS011;4185;41.506;24.938;2023-06-14T00:02:14;10.20;;;5.60;;
8293;SDS011;4185;41.506;24.938;2023-06-14T00:04:41;6.90;;;4.97;;
8293;SDS011;4185;41.506;24.938;2023-06-14T00:07:08;6.07;;;5.37;;
8293;SDS011;4185;41.506;24.938;2023-06-14T00:09:35;5.73;;;5.07;;
8293;SDS011;4185;41.506;24.938;2023-06-14T00:12:03;5.80;;;5.20;;
8293;SDS011;4185;41.506;24.938;2023-06-14T00:14:31;6.87;;;5.40;;
8293;SDS011;4185;41.506;24.938;2023-06-14T00:16:58;8.07;;;5.83;;
8293;SDS011;4185;41.506;24.938;2023-06-14T00:19:24;7.03;;;5.67;;
8293;SDS011;4185;41.506;24.938;2023-06-14T00:21:51;7.00;;;6.17;;
8293;SDS011;4185;41.506;24.938;2023-06-14T00:24:18;6.80;;;5.73;;
8293;SDS011;4185;41.506;24.938;2023-06-14T00:26:45;9.60;;;6.23;;
8293;SDS011;4185;41.506;24.938;2023-06-14T00:29:15;8.57;;;6.43;;
8293;SDS011;4185;41.506;24.938;2023-06-14T00:31:41;6.40;;;5.67;;
8293;SDS011;4185;41.506;24.938;2023-06-14T00:34:08;6.63;;;5.33;;
8293;SDS011;4185;41.506;24.938;2023-06-14T00:36:35;6.53;;;5.40;;
8293;SDS011;4185;41.506;24.938;2023-06-14T00:39:02;6.77;;;5.20;;
8293;SDS011;4185;41.506;24.938;2023-06-14T00:41:28;7.30;;;5.40;;
8293;SDS011;4185;41.506;24.938;2023-06-14T00:43:55;6.93;;;5.30;;
8293;SDS011;4185;41.506;24.938;2023-06-14T00:46:24;5.33;;;4.83;;
8293;SDS011;4185;41.506;24.938;2023-06-14T00:48:50;8.23;;;5.60;;
8293;SDS011;4185;41.506;24.938;2023-06-14T00:51:17;6.93;;;5.43;;
8293;SDS011;4185;41.506;24.938;2023-06-14T00:53:45;8.27;;;6.00;;
8293;SDS011;4185;41.506;24.938;2023-06-14T00:56:13;7.07;;;5.37;;
8293;SDS011;4185;41.506;24.938;2023-06-14T00:58:40;6.47;;;5.77;;
8293;SDS011;4185;41.506;24.938;2023-06-14T01:01:07;7.57;;;5.70;;
8293;SDS011;4185;41.506;24.938;2023-06-14T01:03:36;8.77;;;5.80;;
8293;SDS011;4185;41.506;24.938;2023-06-14T01:06:05;6.83;;;5.57;;
8293;SDS011;4185;41.506;24.938;2023-06-14T01:08:43;6.70;;;5.50;;
8293;SDS011;4185;41.506;24.938;2023-06-14T01:11:18;7.33;;;6.03;;
8293;SDS011;4185;41.506;24.938;2023-06-14T01:13:50;7.33;;;5.90;;
8293;SDS011;4185;41.506;24.938;2023-06-14T01:16:18;7.67;;;6.77;;
8293;SDS011;4185;41.506;24.938;2023-06-14T01:18:47;8.70;;;6.53;;
8293;SDS011;4185;41.506;24.938;2023-06-14T01:21:21;7.63;;;6.10;;
8293;SDS011;4185;41.506;24.938;2023-06-14T01:23:49;7.60;;;6.03;;
8293;SDS011;4185;41.506;24.938;2023-06-14T01:26:18;8.17;;;6.37;;
8293;SDS011;4185;41.506;24.938;2023-06-14T01:28:46;9.33;;;6.73;;
8293;SDS011;4185;41.506;24.938;2023-06-14T01:31:16;13.40;;;6.77;;
8293;SDS011;4185;41.506;24.938;2023-06-14T01:33:44;9.57;;;6.73;;
8293;SDS011;4185;41.506;24.938;2023-06-14T01:36:11;9.23;;;6.50;;
8293;SDS011;4185;41.506;24.938;2023-06-14T01:38:39;6.40;;;5.17;;
8293;SDS011;4185;41.506;24.938;2023-06-14T01:41:09;6.93;;;5.50;;
8293;SDS011;4185;41.506;24.938;2023-06-14T01:43:37;7.30;;;5.67;;
8293;SDS011;4185;41.506;24.938;2023-06-14T01:46:06;9.83;;;5.57;;
8293;SDS011;4185;41.506;24.938;2023-06-14T01:48:34;7.93;;;5.83;;
8293;SDS011;4185;41.506;24.938;2023-06-14T01:51:01;7.53;;;5.97;;
8293;SDS011;4185;41.506;24.938;2023-06-14T01:53:28;7.90;;;6.13;;
8293;SDS011;4185;41.506;24.938;2023-06-14T01:55:54;6.27;;;5.67;;
8293;SDS011;4185;41.506;24.938;2023-06-14T01:58:22;7.33;;;6.10;;
8293;SDS011;4185;41.506;24.938;2023-06-14T02:00:51;12.93;;;7.10;;
8293;SDS011;4185;41.506;24.938;2023-06-14T02:03:20;10.40;;;6.23;;
8293;SDS011;4185;41.506;24.938;2023-06-14T02:05:48;8.33;;;6.03;;
8293;SDS011;4185;41.506;24.938;2023-06-14T02:08:15;10.10;;;6.20;;
8293;SDS011;4185;41.506;24.938;2023-06-14T02:10:42;10.03;;;6.27;;
8293;SDS011;4185;41.506;24.938;2023-06-14T02:13:08;11.90;;;6.50;;
8293;SDS011;4185;41.506;24.938;2023-06-14T02:15:36;10.53;;;6.70;;
8293;SDS011;4185;41.506;24.938;2023-06-14T02:18:03;9.93;;;6.90;;
8293;SDS011;4185;41.506;24.938;2023-06-14T02:20:30;8.23;;;6.77;;
8293;SDS011;4185;41.506;24.938;2023-06-14T02:22:57;9.27;;;6.60;;
8293;SDS011;4185;41.506;24.938;2023-06-14T02:25:24;12.37;;;7.03;;
8293;SDS011;4185;41.506;24.938;2023-06-14T02:27:53;10.57;;;6.60;;
8293;SDS011;4185;41.506;24.938;2023-06-14T02:30:20;11.40;;;6.63;;
8293;SDS011;4185;41.506;24.938;2023-06-14T02:32:48;7.67;;;5.93;;
8293;SDS011;4185;41.506;24.938;2023-06-14T02:35:16;7.50;;;5.50;;
8293;SDS011;4185;41.506;24.938;2023-06-14T02:37:43;8.10;;;5.90;;
8293;SDS011;4185;41.506;24.938;2023-06-14T02:40:10;7.90;;;6.10;;
8293;SDS011;4185;41.506;24.938;2023-06-14T02:42:37;8.57;;;6.40;;
8293;SDS011;4185;41.506;24.938;2023-06-14T02:45:04;7.83;;;6.00;;
8293;SDS011;4185;41.506;24.938;2023-06-14T02:47:32;11.67;;;6.30;;
8293;SDS011;4185;41.506;24.938;2023-06-14T02:50:00;11.77;;;6.73;;
8293;SDS011;4185;41.506;24.938;2023-06-14T02:52:27;10.53;;;6.80;;
8293;SDS011;4185;41.506;24.938;2023-06-14T02:54:54;7.57;;;6.63;;
8293;SDS011;4185;41.506;24.938;2023-06-14T02:57:21;9.37;;;7.00;;
8293;SDS011;4185;41.506;24.938;2023-06-14T02:59:48;7.77;;;6.23;;
8293;SDS011;4185;41.506;24.938;2023-06-14T03:02:15;8.77;;;6.87;;
8293;SDS011;4185;41.506;24.938;2023-06-14T03:04:42;7.87;;;6.70;;
8293;SDS011;4185;41.506;24.938;2023-06-14T03:07:11;8.50;;;6.97;;
8293;SDS011;4185;41.506;24.938;2023-06-14T03:09:38;8.37;;;6.60;;
8293;SDS011;4185;41.506;24.938;2023-06-14T03:12:06;10.80;;;7.57;;
8293;SDS011;4185;41.506;24.938;2023-06-14T03:14:34;9.20;;;6.97;;
8293;SDS011;4185;41.506;24.938;2023-06-14T03:17:01;8.60;;;6.90;;
8293;SDS011;4185;41.506;24.938;2023-06-14T03:19:29;10.70;;;6.93;;
8293;SDS011;4185;41.506;24.938;2023-06-14T03:21:57;10.20;;;6.57;;
8293;SDS011;4185;41.506;24.938;2023-06-14T03:24:25;10.30;;;7.30;;
8293;SDS011;4185;41.506;24.938;2023-06-14T03:26:53;9.80;;;7.03;;
8293;SDS011;4185;41.506;24.938;2023-06-14T03:29:21;9.50;;;7.50;;
8293;SDS011;4185;41.506;24.938;2023-06-14T03:31:58;8.63;;;6.73;;
8293;SDS011;4185;41.506;24.938;2023-06-14T03:34:25;10.10;;;6.87;;
8293;SDS011;4185;41.506;24.938;2023-06-14T03:36:52;13.33;;;7.20;;
8293;SDS011;4185;41.506;24.938;2023-06-14T03:39:19;9.00;;;7.00;;
8293;SDS011;4185;41.506;24.938;2023-06-14T03:41:48;9.50;;;7.10;;
8293;SDS011;4185;41.506;24.938;2023-06-14T03:44:15;10.33;;;7.70;;
8293;SDS011;4185;41.506;24.938;2023-06-14T03:46:43;12.73;;;7.70;;
8293;SDS011;4185;41.506;24.938;2023-06-14T03:49:10;9.67;;;7.50;;
8293;SDS011;4185;41.506;24.938;2023-06-14T03:51:37;11.77;;;7.20;;
8293;SDS011;4185;41.506;24.938;2023-06-14T03:54:05;11.13;;;8.03;;
8293;SDS011;4185;41.506;24.938;2023-06-14T03:56:32;9.90;;;7.47;;
8293;SDS011;4185;41.506;24.938;2023-06-14T03:59:00;9.17;;;7.57;;
8293;SDS011;4185;41.506;24.938;2023-06-14T04:01:27;9.60;;;7.47;;
8293;SDS011;4185;41.506;24.938;2023-06-14T04:03:55;11.67;;;8.03;;
8293;SDS011;4185;41.506;24.938;2023-06-14T04:06:22;10.30;;;7.77;;
8293;SDS011;4185;41.506;24.938;2023-06-14T04:08:50;8.50;;;7.60;;
8293;SDS011;4185;41.506;24.938;2023-06-14T04:11:18;10.57;;;8.03;;
8293;SDS011;4185;41.506;24.938;2023-06-14T04:13:45;10.63;;;9.20;;
8293;SDS011;4185;41.506;24.938;2023-06-14T04:16:13;10.37;;;8.30;;
8293;SDS011;4185;41.506;24.938;2023-06-14T04:18:41;11.40;;;8.10;;
8293;SDS011;4185;41.506;24.938;2023-06-14T04:21:07;11.17;;;7.90;;
8293;SDS011;4185;41.506;24.938;2023-06-14T04:23:34;11.03;;;7.53;;
8293;SDS011;4185;41.506;24.938;2023-06-14T04:26:01;10.63;;;7.33;;
8293;SDS011;4185;41.506;24.938;2023-06-14T04:28:28;10.77;;;7.53;;
8293;SDS011;4185;41.506;24.938;2023-06-14T04:30:55;10.77;;;7.83;;
8293;SDS011;4185;41.506;24.938;2023-06-14T04:33:23;10.40;;;7.63;;
8293;SDS011;4185;41.506;24.938;2023-06-14T04:35:50;9.30;;;7.80;;
8293;SDS011;4185;41.506;24.938;2023-06-14T04:38:19;13.50;;;8.10;;
8293;SDS011;4185;41.506;24.938;2023-06-14T04:40:49;9.93;;;7.57;;
8293;SDS011;4185;41.506;24.938;2023-06-14T04:43:18;12.63;;;7.90;;
8293;SDS011;4185;41.506;24.938;2023-06-14T04:45:52;11.77;;;7.27;;
8293;SDS011;4185;41.506;24.938;2023-06-14T04:48:22;10.27;;;8.30;;
8293;SDS011;4185;41.506;24.938;2023-06-14T04:50:49;9.90;;;7.23;;
8293;SDS011;4185;41.506;24.938;2023-06-14T04:53:18;8.43;;;7.17;;
8293;SDS011;4185;41.506;24.938;2023-06-14T04:55:48;8.57;;;6.80;;
8293;SDS011;4185;41.506;24.938;2023-06-14T04:58:15;8.67;;;7.00;;
8293;SDS011;4185;41.506;24.938;2023-06-14T05:00:42;9.17;;;6.83;;
8293;SDS011;4185;41.506;24.938;2023-06-14T05:03:09;8.10;;;7.03;;
8293;SDS011;4185;41.506;24.938;2023-06-14T05:05:40;8.07;;;6.90;;
8293;SDS011;4185;41.506;24.938;2023-06-14T05:08:07;8.60;;;7.07;;
8293;SDS011;4185;41.506;24.938;2023-06-14T05:10:34;7.37;;;6.50;;
8293;SDS011;4185;41.506;24.938;2023-06-14T05:13:01;11.27;;;7.90;;
8293;SDS011;4185;41.506;24.938;2023-06-14T05:15:28;10.80;;;7.70;;
8293;SDS011;4185;41.506;24.938;2023-06-14T05:17:55;8.63;;;6.90;;
8293;SDS011;4185;41.506;24.938;2023-06-14T05:20:22;10.70;;;8.23;;
8293;SDS011;4185;41.506;24.938;2023-06-14T05:22:51;12.23;;;8.33;;
8293;SDS011;4185;41.506;24.938;2023-06-14T05:25:19;9.63;;;7.97;;
8293;SDS011;4185;41.506;24.938;2023-06-14T05:27:46;12.60;;;8.10;;
8293;SDS011;4185;41.506;24.938;2023-06-14T05:30:13;8.97;;;7.63;;
8293;SDS011;4185;41.506;24.938;2023-06-14T05:32:42;9.37;;;7.70;;
8293;SDS011;4185;41.506;24.938;2023-06-14T05:35:09;9.40;;;7.70;;
8293;SDS011;4185;41.506;24.938;2023-06-14T05:37:36;9.40;;;7.53;;
8293;SDS011;4185;41.506;24.938;2023-06-14T05:40:05;12.20;;;7.97;;
8293;SDS011;4185;41.506;24.938;2023-06-14T05:42:34;10.80;;;7.43;;
8293;SDS011;4185;41.506;24.938;2023-06-14T05:45:01;7.90;;;7.10;;
8293;SDS011;4185;41.506;24.938;2023-06-14T05:47:27;9.27;;;7.63;;
8293;SDS011;4185;41.506;24.938;2023-06-14T05:49:54;9.13;;;7.50;;
8293;SDS011;4185;41.506;24.938;2023-06-14T05:52:21;10.83;;;7.43;;
8293;SDS011;4185;41.506;24.938;2023-06-14T05:54:48;8.73;;;7.73;;
8293;SDS011;4185;41.506;24.938;2023-06-14T05:57:16;8.53;;;7.60;;
8293;SDS011;4185;41.506;24.938;2023-06-14T05:59:43;11.07;;;7.77;;
8293;SDS011;4185;41.506;24.938;2023-06-14T06:02:10;9.20;;;7.63;;
8293;SDS011;4185;41.506;24.938;2023-06-14T06:04:37;8.47;;;7.27;;
8293;SDS011;4185;41.506;24.938;2023-06-14T06:07:04;9.33;;;7.40;;
8293;SDS011;4185;41.506;24.938;2023-06-14T06:09:32;12.17;;;7.93;;
8293;SDS011;4185;41.506;24.938;2023-06-14T06:11:58;8.40;;;7.50;;
8293;SDS011;4185;41.506;24.938;2023-06-14T06:14:27;8.60;;;6.93;;
8293;SDS011;4185;41.506;24.938;2023-06-14T06:16:53;9.53;;;7.80;;
8293;SDS011;4185;41.506;24.938;2023-06-14T06:19:20;9.17;;;8.00;;
8293;SDS011;4185;41.506;24.938;2023-06-14T06:21:47;7.80;;;7.03;;
8293;SDS011;4185;41.506;24.938;2023-06-14T06:24:14;10.57;;;7.63;;
8293;SDS011;4185;41.506;24.938;2023-06-14T06:26:41;10.60;;;7.60;;
8293;SDS011;4185;41.506;24.938;2023-06-14T06:29:07;8.47;;;7.53;;
8293;SDS011;4185;41.506;24.938;2023-06-14T06:31:36;8.80;;;7.47;;
8293;SDS011;4185;41.506;24.938;2023-06-14T06:34:02;9.30;;;7.30;;
8293;SDS011;4185;41.506;24.938;2023-06-14T06:36:29;10.20;;;7.23;;
8293;SDS011;4185;41.506;24.938;2023-06-14T06:38:56;7.80;;;7.00;;
8293;SDS011;4185;41.506;24.938;2023-06-14T06:41:23;9.17;;;7.77;;
8293;SDS011;4185;41.506;24.938;2023-06-14T06:43:49;11.07;;;7.47;;
8293;SDS011;4185;41.506;24.938;2023-06-14T06:46:16;9.57;;;7.93;;
8293;SDS011;4185;41.506;24.938;2023-06-14T06:48:45;10.27;;;8.30;;
8293;SDS011;4185;41.506;24.938;2023-06-14T06:51:12;9.33;;;8.13;;
8293;SDS011;4185;41.506;24.938;2023-06-14T06:53:41;8.27;;;7.47;;
8293;SDS011;4185;41.506;24.938;2023-06-14T06:56:09;9.00;;;7.70;;
8293;SDS011;4185;41.506;24.938;2023-06-14T06:58:35;9.97;;;8.10;;
8293;SDS011;4185;41.506;24.938;2023-06-14T07:01:02;8.63;;;7.83;;
8293;SDS011;4185;41.506;24.938;2023-06-14T07:03:29;10.43;;;7.83;;
8293;SDS011;4185;41.506;24.938;2023-06-14T07:05:57;9.27;;;7.67;;
8293;SDS011;4185;41.506;24.938;2023-06-14T07:08:24;8.10;;;7.30;;
8293;SDS011;4185;41.506;24.938;2023-06-14T07:10:52;11.60;;;8.47;;
8293;SDS011;4185;41.506;24.938;2023-06-14T07:13:18;11.80;;;8.33;;
8293;SDS011;4185;41.506;24.938;2023-06-14T07:15:45;9.73;;;8.73;;
8293;SDS011;4185;41.506;24.938;2023-06-14T07:18:12;9.63;;;8.13;;
8293;SDS011;4185;41.506;24.938;2023-06-14T07:20:39;9.70;;;8.70;;
8293;SDS011;4185;41.506;24.938;2023-06-14T07:23:07;10.10;;;9.00;;
8293;SDS011;4185;41.506;24.938;2023-06-14T07:25:34;10.40;;;9.07;;
8293;SDS011;4185;41.506;24.938;2023-06-14T07:28:00;9.97;;;8.47;;
8293;SDS011;4185;41.506;24.938;2023-06-14T07:30:27;10.83;;;9.27;;
8293;SDS011;4185;41.506;24.938;2023-06-14T07:32:55;10.00;;;8.97;;
8293;SDS011;4185;41.506;24.938;2023-06-14T07:35:22;10.83;;;9.53;;
8293;SDS011;4185;41.506;24.938;2023-06-14T07:37:49;10.17;;;9.17;;
8293;SDS011;4185;41.506;24.938;2023-06-14T07:40:17;11.03;;;9.47;;
8293;SDS011;4185;41.506;24.938;2023-06-14T07:42:44;10.77;;;9.00;;
8293;SDS011;4185;41.506;24.938;2023-06-14T07:45:11;10.60;;;9.50;;
8293;SDS011;4185;41.506;24.938;2023-06-14T07:47:39;13.27;;;10.57;;
8293;SDS011;4185;41.506;24.938;2023-06-14T07:50:06;11.77;;;9.87;;
8293;SDS011;4185;41.506;24.938;2023-06-14T07:52:34;13.00;;;10.57;;
8293;SDS011;4185;41.506;24.938;2023-06-14T07:55:01;12.77;;;10.47;;
8293;SDS011;4185;41.506;24.938;2023-06-14T07:57:29;12.97;;;10.67;;
8293;SDS011;4185;41.506;24.938;2023-06-14T07:59:55;13.63;;;10.53;;
8293;SDS011;4185;41.506;24.938;2023-06-14T08:02:22;13.83;;;11.03;;
8293;SDS011;4185;41.506;24.938;2023-06-14T08:04:50;12.60;;;10.60;;
8293;SDS011;4185;41.506;24.938;2023-06-14T08:07:17;13.10;;;10.63;;
8293;SDS011;4185;41.506;24.938;2023-06-14T08:09:44;13.70;;;11.70;;
8293;SDS011;4185;41.506;24.938;2023-06-14T08:12:11;12.10;;;10.40;;
8293;SDS011;4185;41.506;24.938;2023-06-14T08:14:40;14.00;;;11.53;;
8293;SDS011;4185;41.506;24.938;2023-06-14T08:17:08;19.37;;;13.07;;
8293;SDS011;4185;41.506;24.938;2023-06-14T08:19:35;15.53;;;12.53;;
8293;SDS011;4185;41.506;24.938;2023-06-14T08:22:02;16.27;;;12.80;;
8293;SDS011;4185;41.506;24.938;2023-06-14T08:24:29;15.10;;;10.97;;
8293;SDS011;4185;41.506;24.938;2023-06-14T08:26:56;12.70;;;10.90;;
8293;SDS011;4185;41.506;24.938;2023-06-14T08:29:26;17.97;;;12.97;;
8293;SDS011;4185;41.506;24.938;2023-06-14T08:31:55;18.13;;;13.07;;
8293;SDS011;4185;41.506;24.938;2023-06-14T08:34:23;16.73;;;13.30;;
8293;SDS011;4185;41.506;24.938;2023-06-14T08:36:50;16.17;;;13.27;;
8293;SDS011;4185;41.506;24.938;2023-06-14T08:39:16;16.53;;;13.60;;
8293;SDS011;4185;41.506;24.938;2023-06-14T08:41:43;18.87;;;13.60;;
8293;SDS011;4185;41.506;24.938;2023-06-14T08:44:12;18.83;;;14.60;;
8293;SDS011;4185;41.506;24.938;2023-06-14T08:46:40;17.30;;;13.20;;
8293;SDS011;4185;41.506;24.938;2023-06-14T08:49:09;15.97;;;13.00;;
8293;SDS011;4185;41.506;24.938;2023-06-14T08:51:38;17.67;;;13.70;;
8293;SDS011;4185;41.506;24.938;2023-06-14T08:54:05;17.17;;;14.00;;
8293;SDS011;4185;41.506;24.938;2023-06-14T08:56:33;17.60;;;14.17;;
8293;SDS011;4185;41.506;24.938;2023-06-14T08:59:03;22.27;;;13.97;;
8293;SDS011;4185;41.506;24.938;2023-06-14T09:01:34;19.80;;;14.60;;
8293;SDS011;4185;41.506;24.938;2023-06-14T09:04:01;18.80;;;13.43;;
8293;SDS011;4185;41.506;24.938;2023-06-14T09:06:31;18.43;;;13.87;;
8293;SDS011;4185;41.506;24.938;2023-06-14T09:08:58;19.37;;;15.20;;
8293;SDS011;4185;41.506;24.938;2023-06-14T09:11:26;19.83;;;15.33;;
8293;SDS011;4185;41.506;24.938;2023-06-14T09:13:52;19.93;;;14.53;;
8293;SDS011;4185;41.506;24.938;2023-06-14T09:16:19;20.27;;;14.47;;
8293;SDS011;4185;41.506;24.938;2023-06-14T09:18:46;22.73;;;15.27;;
8293;SDS011;4185;41.506;24.938;2023-06-14T09:21:14;19.70;;;14.63;;
8293;SDS011;4185;41.506;24.938;2023-06-14T09:23:43;18.33;;;14.13;;
8293;SDS011;4185;41.506;24.938;2023-06-14T09:26:12;18.20;;;13.20;;
8293;SDS011;4185;41.506;24.938;2023-06-14T09:28:43;18.97;;;15.37;;
8293;SDS011;4185;41.506;24.938;2023-06-14T09:31:10;18.43;;;14.87;;
8293;SDS011;4185;41.506;24.938;2023-06-14T09:33:37;20.90;;;14.53;;
8293;SDS011;4185;41.506;24.938;2023-06-14T09:36:04;19.07;;;14.50;;
8293;SDS011;4185;41.506;24.938;2023-06-14T09:38:36;18.63;;;13.43;;
8293;SDS011;4185;41.506;24.938;2023-06-14T09:41:07;18.33;;;14.53;;
8293;SDS011;4185;41.506;24.938;2023-06-14T09:43:35;19.80;;;15.23;;
8293;SDS011;4185;41.506;24.938;2023-06-14T09:46:03;20.63;;;15.63;;
8293;SDS011;4185;41.506;24.938;2023-06-14T09:48:32;20.83;;;15.87;;
8293;SDS011;4185;41.506;24.938;2023-06-14T09:50:59;21.63;;;16.40;;
8293;SDS011;4185;41.506;24.938;2023-06-14T09:53:29;19.60;;;13.60;;
8293;SDS011;4185;41.506;24.938;2023-06-14T09:55:57;18.90;;;14.77;;
8293;SDS011;4185;41.506;24.938;2023-06-14T09:58:26;20.83;;;15.10;;
8293;SDS011;4185;41.506;24.938;2023-06-14T10:00:53;19.93;;;15.13;;
8293;SDS011;4185;41.506;24.938;2023-06-14T10:03:24;21.10;;;15.77;;
8293;SDS011;4185;41.506;24.938;2023-06-14T10:05:54;21.93;;;16.53;;
8293;SDS011;4185;41.506;24.938;2023-06-14T10:08:27;19.33;;;15.90;;
8293;SDS011;4185;41.506;24.938;2023-06-14T10:10:58;19.73;;;15.27;;
8293;SDS011;4185;41.506;24.938;2023-06-14T10:13:26;23.23;;;15.63;;
8293;SDS011;4185;41.506;24.938;2023-06-14T10:15:58;21.07;;;15.57;;
8293;SDS011;4185;41.506;24.938;2023-06-14T10:18:32;20.27;;;15.87;;
8293;SDS011;4185;41.506;24.938;2023-06-14T10:21:05;20.40;;;14.83;;
8293;SDS011;4185;41.506;24.938;2023-06-14T10:23:40;24.17;;;17.33;;
8293;SDS011;4185;41.506;24.938;2023-06-14T10:26:08;21.27;;;16.30;;
8293;SDS011;4185;41.506;24.938;2023-06-14T10:28:47;18.57;;;14.67;;
8293;SDS011;4185;41.506;24.938;2023-06-14T10:31:22;21.90;;;15.37;;
8293;SDS011;4185;41.506;24.938;2023-06-14T10:34:05;22.37;;;16.37;;
8293;SDS011;4185;41.506;24.938;2023-06-14T10:36:32;21.93;;;15.87;;
8293;SDS011;4185;41.506;24.938;2023-06-14T10:39:00;21.13;;;16.27;;
8293;SDS011;4185;41.506;24.938;2023-06-14T10:41:31;20.97;;;15.50;;
8293;SDS011;4185;41.506;24.938;2023-06-14T10:44:18;24.97;;;16.60;;
8293;SDS011;4185;41.506;24.938;2023-06-14T10:47:07;24.07;;;15.40;;
8293;SDS011;4185;41.506;24.938;2023-06-14T10:49:36;22.50;;;16.63;;
8293;SDS011;4185;41.506;24.938;2023-06-14T10:52:07;21.87;;;16.10;;
8293;SDS011;4185;41.506;24.938;2023-06-14T10:57:34;21.00;;;14.70;;
8293;SDS011;4185;41.506;24.938;2023-06-14T11:00:03;23.83;;;16.73;;
8293;SDS011;4185;41.506;24.938;2023-06-14T11:06:10;19.93;;;14.77;;
8293;SDS011;4185;41.506;24.938;2023-06-14T11:11:49;22.80;;;16.13;;
8293;SDS011;4185;41.506;24.938;2023-06-14T11:14:20;21.93;;;15.53;;
8293;SDS011;4185;41.506;24.938;2023-06-14T11:16:51;19.77;;;15.50;;
8293;SDS011;4185;41.506;24.938;2023-06-14T11:19:18;20.30;;;15.23;;
8293;SDS011;4185;41.506;24.938;2023-06-14T11:21:47;24.00;;;16.07;;
8293;SDS011;4185;41.506;24.938;2023-06-14T11:24:14;20.33;;;15.27;;
8293;SDS011;4185;41.506;24.938;2023-06-14T11:26:40;20.57;;;15.67;;
8293;SDS011;4185;41.506;24.938;2023-06-14T11:29:07;21.47;;;15.43;;
8293;SDS011;4185;41.506;24.938;2023-06-14T11:31:34;20.60;;;15.40;;
8293;SDS011;4185;41.506;24.938;2023-06-14T11:34:02;21.40;;;15.77;;
8293;SDS011;4185;41.506;24.938;2023-06-14T11:36:31;20.83;;;14.73;;
8293;SDS011;4185;41.506;24.938;2023-06-14T11:39:00;19.27;;;14.70;;
8293;SDS011;4185;41.506;24.938;2023-06-14T11:41:35;17.67;;;14.37;;
8293;SDS011;4185;41.506;24.938;2023-06-14T11:44:03;19.10;;;14.57;;
8293;SDS011;4185;41.506;24.938;2023-06-14T11:46:31;20.53;;;14.90;;
8293;SDS011;4185;41.506;24.938;2023-06-14T11:48:58;18.77;;;14.23;;
8293;SDS011;4185;41.506;24.938;2023-06-14T11:51:29;19.77;;;14.30;;
8293;SDS011;4185;41.506;24.938;2023-06-14T11:53:56;19.47;;;14.20;;
8293;SDS011;4185;41.506;24.938;2023-06-14T11:56:23;18.10;;;13.43;;
8293;SDS011;4185;41.506;24.938;2023-06-14T11:58:52;17.87;;;13.43;;
8293;SDS011;4185;41.506;24.938;2023-06-14T12:01:21;20.37;;;13.67;;
8293;SDS011;4185;41.506;24.938;2023-06-14T12:03:48;17.23;;;14.13;;
8293;SDS011;4185;41.506;24.938;2023-06-14T12:06:15;16.33;;;13.13;;
8293;SDS011;4185;41.506;24.938;2023-06-14T12:08:45;17.77;;;14.03;;
8293;SDS011;4185;41.506;24.938;2023-06-14T12:11:14;19.13;;;14.23;;
8293;SDS011;4185;41.506;24.938;2023-06-14T12:13:42;19.70;;;14.43;;
8293;SDS011;4185;41.506;24.938;2023-06-14T12:16:09;18.57;;;13.77;;
8293;SDS011;4185;41.506;24.938;2023-06-14T12:18:37;18.07;;;13.27;;
8293;SDS011;4185;41.506;24.938;2023-06-14T12:21:06;16.50;;;13.13;;
8293;SDS011;4185;41.506;24.938;2023-06-14T12:23:44;18.33;;;12.63;;
8293;SDS011;4185;41.506;24.938;2023-06-14T12:26:13;15.23;;;12.13;;
8293;SDS011;4185;41.506;24.938;2023-06-14T12:28:41;16.10;;;12.47;;
8293;SDS011;4185;41.506;24.938;2023-06-14T12:31:08;13.30;;;10.73;;
8293;SDS011;4185;41.506;24.938;2023-06-14T12:33:35;15.93;;;12.03;;
8293;SDS011;4185;41.506;24.938;2023-06-14T12:36:03;16.07;;;12.37;;
8293;SDS011;4185;41.506;24.938;2023-06-14T12:38:30;15.10;;;11.97;;
8293;SDS011;4185;41.506;24.938;2023-06-14T12:40:58;16.37;;;12.60;;
8293;SDS011;4185;41.506;24.938;2023-06-14T12:43:25;15.20;;;12.40;;
8293;SDS011;4185;41.506;24.938;2023-06-14T12:45:52;16.37;;;12.23;;
8293;SDS011;4185;41.506;24.938;2023-06-14T12:48:19;15.50;;;12.23;;
8293;SDS011;4185;41.506;24.938;2023-06-14T12:50:46;14.43;;;11.87;;
8293;SDS011;4185;41.506;24.938;2023-06-14T12:53:14;14.37;;;11.47;;
8293;SDS011;4185;41.506;24.938;2023-06-14T12:55:41;14.23;;;11.50;;
8293;SDS011;4185;41.506;24.938;2023-06-14T12:58:09;13.93;;;11.00;;
8293;SDS011;4185;41.506;24.938;2023-06-14T13:00:37;12.93;;;11.37;;
8293;SDS011;4185;41.506;24.938;2023-06-14T13:03:04;12.37;;;10.97;;
8293;SDS011;4185;41.506;24.938;2023-06-14T13:05:31;13.87;;;11.17;;
8293;SDS011;4185;41.506;24.938;2023-06-14T13:07:58;13.00;;;10.60;;
8293;SDS011;4185;41.506;24.938;2023-06-14T13:10:25;12.63;;;10.63;;
8293;SDS011;4185;41.506;24.938;2023-06-14T13:12:52;11.53;;;9.87;;
8293;SDS011;4185;41.506;24.938;2023-06-14T13:15:20;14.50;;;11.17;;
8293;SDS011;4185;41.506;24.938;2023-06-14T13:17:47;13.03;;;10.87;;
8293;SDS011;4185;41.506;24.938;2023-06-14T13:20:14;14.03;;;10.27;;
8293;SDS011;4185;41.506;24.938;2023-06-14T13:22:41;12.93;;;10.57;;
8293;SDS011;4185;41.506;24.938;2023-06-14T13:25:08;12.37;;;10.87;;
8293;SDS011;4185;41.506;24.938;2023-06-14T13:27:35;15.00;;;10.27;;
8293;SDS011;4185;41.506;24.938;2023-06-14T13:30:02;13.00;;;9.70;;
8293;SDS011;4185;41.506;24.938;2023-06-14T13:32:32;12.83;;;9.83;;
8293;SDS011;4185;41.506;24.938;2023-06-14T13:34:58;12.63;;;9.90;;
8293;SDS011;4185;41.506;24.938;2023-06-14T13:37:25;12.97;;;10.20;;
8293;SDS011;4185;41.506;24.938;2023-06-14T13:39:52;13.23;;;10.50;;
8293;SDS011;4185;41.506;24.938;2023-06-14T13:42:18;14.50;;;10.10;;
8293;SDS011;4185;41.506;24.938;2023-06-14T13:44:45;16.43;;;12.10;;
8293;SDS011;4185;41.506;24.938;2023-06-14T13:47:12;16.90;;;11.90;;
8293;SDS011;4185;41.506;24.938;2023-06-14T13:49:40;13.80;;;11.33;;
8293;SDS011;4185;41.506;24.938;2023-06-14T13:52:07;17.37;;;12.10;;
8293;SDS011;4185;41.506;24.938;2023-06-14T13:54:34;17.77;;;12.47;;
8293;SDS011;4185;41.506;24.938;2023-06-14T13:57:01;18.13;;;12.37;;
8293;SDS011;4185;41.506;24.938;2023-06-14T13:59:27;14.40;;;11.03;;
8293;SDS011;4185;41.506;24.938;2023-06-14T14:01:54;14.70;;;11.43;;
8293;SDS011;4185;41.506;24.938;2023-06-14T14:04:21;13.77;;;11.00;;
8293;SDS011;4185;41.506;24.938;2023-06-14T14:06:49;14.30;;;10.53;;
8293;SDS011;4185;41.506;24.938;2023-06-14T14:09:16;12.83;;;10.20;;
8293;SDS011;4185;41.506;24.938;2023-06-14T14:11:42;12.23;;;9.70;;
8293;SDS011;4185;41.506;24.938;2023-06-14T14:14:09;12.90;;;10.50;;
8293;SDS011;4185;41.506;24.938;2023-06-14T14:16:36;14.70;;;10.00;;
8293;SDS011;4185;41.506;24.938;2023-06-14T14:19:03;14.23;;;11.43;;
8293;SDS011;4185;41.506;24.938;2023-06-14T14:21:30;14.67;;;11.03;;
8293;SDS011;4185;41.506;24.938;2023-06-14T14:23:58;14.03;;;10.90;;
8293;SDS011;4185;41.506;24.938;2023-06-14T14:26:25;16.20;;;11.37;;
8293;SDS011;4185;41.506;24.938;2023-06-14T14:28:52;12.27;;;9.60;;
8293;SDS011;4185;41.506;24.938;2023-06-14T14:31:19;9.73;;;8.57;;
8293;SDS011;4185;41.506;24.938;2023-06-14T14:33:45;10.70;;;8.63;;
8293;SDS011;4185;41.506;24.938;2023-06-14T14:36:12;9.23;;;8.13;;
8293;SDS011;4185;41.506;24.938;2023-06-14T14:38:39;9.67;;;8.10;;
8293;SDS011;4185;41.506;24.938;2023-06-14T14:41:07;8.17;;;6.83;;
8293;SDS011;4185;41.506;24.938;2023-06-14T14:43:34;10.17;;;8.00;;
8293;SDS011;4185;41.506;24.938;2023-06-14T14:46:01;9.13;;;7.60;;
8293;SDS011;4185;41.506;24.938;2023-06-14T14:48:27;10.33;;;8.00;;
8293;SDS011;4185;41.506;24.938;2023-06-14T14:50:54;9.03;;;7.10;;
8293;SDS011;4185;41.506;24.938;2023-06-14T14:53:21;8.80;;;7.37;;
8293;SDS011;4185;41.506;24.938;2023-06-14T14:55:48;8.73;;;7.47;;
8293;SDS011;4185;41.506;24.938;2023-06-14T14:58:16;11.33;;;9.33;;
8293;SDS011;4185;41.506;24.938;2023-06-14T15:00:43;16.63;;;10.57;;
8293;SDS011;4185;41.506;24.938;2023-06-14T15:03:10;11.13;;;8.90;;